Barhom II — 5IM534 — position and weather

sailwx.info

Track history (hours):
 
Tides and Currents Weather Stations Pressure Air Temp Water Temp Dewpoint Dewpoint Depression Visibility Wind Speed Wind Dir Waves Ship Positions

Barhom II

Last reported at 2017-Apr-28 02:21 UTC. Time now 2017-Apr-28 12:17 UTC.
Position N 31°22' E 032°19'.

Length 83 m.

Type: Cargo ship. MMSI: 677043400.

Date/timePositionNaut miles runAvg speedWind from/ knotsBaromVisibWave heightAir tempDewpointWater temp
2017-Apr-28 02:21N 31°22' E 032°19'1 2.5
2017-Apr-28 01:57N 31°21' E 032°18'0 0.0
2017-Apr-27 23:57N 31°21' E 032°18'0 0.0
2017-Apr-27 23:00N 31°21' E 032°18'  
2017-Apr-22 21:46N 43°54' E 014°15'410.6
2017-Apr-22 21:26N 43°56' E 014°12'510.7
2017-Apr-22 21:00N 44°00' E 014°08'510.7
2017-Apr-22 20:30N 44°05' E 014°04'510.7
2017-Apr-22 20:00N 44°09' E 014°00'510.6
2017-Apr-22 19:31N 44°13' E 013°56'610.4
2017-Apr-22 18:59N 44°18' E 013°51'510.4
2017-Apr-22 18:30N 44°22' E 013°48'510.4
2017-Apr-22 18:00N 44°26' E 013°43'510.4
2017-Apr-22 17:30N 44°31' E 013°39'510.2
2017-Apr-22 17:00N 44°35' E 013°35'510.4
2017-Apr-22 16:30N 44°39' E 013°31'510.3
2017-Apr-22 16:00N 44°43' E 013°27'510.3
2017-Apr-22 15:31N 44°48' E 013°23'510.5
2017-Apr-22 15:00N 44°52' E 013°19'510.6
2017-Apr-22 14:31N 44°56' E 013°15'1010.4
2017-Apr-22 13:31N 45°05' E 013°07'5 9.9
2017-Apr-22 13:01N 45°09' E 013°03'510.0
2017-Apr-22 12:31N 45°14' E 013°01'510.3
2017-Apr-22 12:00N 45°19' E 012°60'510.3
2017-Apr-22 11:31N 45°24' E 012°58'5 9.1
2017-Apr-22 11:01N 45°27' E 013°03'510.9
2017-Apr-22 10:30N 45°30' E 013°10'510.6
2017-Apr-22 10:01N 45°32' E 013°17'510.6
2017-Apr-22 09:31N 45°35' E 013°23'510.6
2017-Apr-22 09:01N 45°37' E 013°30'5 9.3
2017-Apr-22 08:31N 45°37' E 013°37'510.5
2017-Apr-22 08:00N 45°34' E 013°43'1 2.6
2017-Apr-22 07:28N 45°34' E 013°45'0 0.0
2017-Apr-22 06:55N 45°34' E 013°45'0 0.0
2017-Apr-22 06:28N 45°34' E 013°45'0 0.0
2017-Apr-22 05:55N 45°34' E 013°45'0 0.0
2017-Apr-22 05:28N 45°34' E 013°45'0 0.0
2017-Apr-22 04:55N 45°34' E 013°45'0 0.0
2017-Apr-22 04:25N 45°34' E 013°45'0 0.0
2017-Apr-22 03:58N 45°34' E 013°45'0 0.0
2017-Apr-22 03:28N 45°34' E 013°45'0 0.0
2017-Apr-22 02:55N 45°34' E 013°45'0 0.0
2017-Apr-22 02:28N 45°34' E 013°45'0 0.0
2017-Apr-22 01:55N 45°34' E 013°45'0 0.0
2017-Apr-22 01:28N 45°34' E 013°45'0 0.0
2017-Apr-22 00:55N 45°34' E 013°45'0 0.0
2017-Apr-22 00:28N 45°34' E 013°45'0 0.0
2017-Apr-21 23:55N 45°34' E 013°45'0 0.0
2017-Apr-21 23:28N 45°34' E 013°45'0 0.0
2017-Apr-21 22:58N 45°34' E 013°45'0 0.0
2017-Apr-21 22:28N 45°34' E 013°45'0 0.0
2017-Apr-21 21:55N 45°34' E 013°45'0 0.0
2017-Apr-21 21:28N 45°34' E 013°45'0 0.0
2017-Apr-21 20:58N 45°34' E 013°45'0 0.0
2017-Apr-21 20:25N 45°34' E 013°45'0 0.0
2017-Apr-21 19:58N 45°34' E 013°45'0 0.0
2017-Apr-21 19:25N 45°34' E 013°45'0 0.0
2017-Apr-21 18:58N 45°34' E 013°45'0 0.0
2017-Apr-21 18:28N 45°34' E 013°45'0 0.0
2017-Apr-21 17:58N 45°34' E 013°45'0 0.0
2017-Apr-21 17:22N 45°34' E 013°45'0 0.0
2017-Apr-21 16:52N 45°34' E 013°45'0 0.0
2017-Apr-21 16:25N 45°34' E 013°45'0 0.0
2017-Apr-21 15:55N 45°34' E 013°45'0 0.0
2017-Apr-21 15:25N 45°34' E 013°45'0 0.0
2017-Apr-21 14:58N 45°34' E 013°45'0 0.0
2017-Apr-21 14:19N 45°34' E 013°45'0 0.0
2017-Apr-21 13:28N 45°34' E 013°45'0 0.0
2017-Apr-21 12:58N 45°34' E 013°45'0 0.0
2017-Apr-21 12:25N 45°34' E 013°45'0 0.0
2017-Apr-21 11:55N 45°34' E 013°45'0 0.0
2017-Apr-21 11:25N 45°34' E 013°45'0 0.0
2017-Apr-21 10:58N 45°34' E 013°45'0 0.0
2017-Apr-21 10:28N 45°34' E 013°45'0 0.0
2017-Apr-21 09:55N 45°34' E 013°45'0 0.0
2017-Apr-21 09:28N 45°34' E 013°45'0 0.0
2017-Apr-21 08:58N 45°34' E 013°45'0 0.0
2017-Apr-21 08:25N 45°34' E 013°45'0 0.0
2017-Apr-21 07:43N 45°34' E 013°45'0 0.0
2017-Apr-21 07:28N 45°34' E 013°45'0 0.0
2017-Apr-21 06:58N 45°34' E 013°45'0 0.0
2017-Apr-21 06:25N 45°34' E 013°45'0 0.0
2017-Apr-21 05:58N 45°34' E 013°45'0 0.0
2017-Apr-21 05:28N 45°34' E 013°45'0 0.0
2017-Apr-21 04:58N 45°34' E 013°45'0 0.0
2017-Apr-21 04:28N 45°34' E 013°45'0 0.2
2017-Apr-21 03:52N 45°34' E 013°45'1 2.0
2017-Apr-21 03:28N 45°34' E 013°43'2 2.9
2017-Apr-21 02:55N 45°34' E 013°41'0 1.0
2017-Apr-21 02:28N 45°34' E 013°42'0 0.0
2017-Apr-21 01:58N 45°34' E 013°42'0 0.0
2017-Apr-21 01:28N 45°34' E 013°42'0 0.0
2017-Apr-21 00:58N 45°34' E 013°42'0 0.1
2017-Apr-21 00:28N 45°34' E 013°42'0 0.1
2017-Apr-20 23:58N 45°34' E 013°42'0 0.0
2017-Apr-20 23:28N 45°34' E 013°42'0 0.0
2017-Apr-20 22:59N 45°34' E 013°42'0 0.0
2017-Apr-20 22:28N 45°34' E 013°42'0 0.0
2017-Apr-20 21:55N 45°34' E 013°42'0 0.1
2017-Apr-20 21:25N 45°34' E 013°42'0 0.0
2017-Apr-20 20:58N 45°34' E 013°42'0 0.0
2017-Apr-20 20:28N 45°34' E 013°42'0 0.1
2017-Apr-20 19:58N 45°34' E 013°42'0 0.0
2017-Apr-20 19:07N 45°34' E 013°42'0 0.2
2017-Apr-20 18:58N 45°34' E 013°42'0 0.1
2017-Apr-20 18:28N 45°34' E 013°42'0 0.0
2017-Apr-20 17:58N 45°34' E 013°42'0 0.0
2017-Apr-20 17:25N 45°34' E 013°42'0 0.1
2017-Apr-20 16:55N 45°34' E 013°42'0 0.1
2017-Apr-20 16:13N 45°34' E 013°42'0 0.0
2017-Apr-20 15:55N 45°34' E 013°42'0 0.0
2017-Apr-20 15:25N 45°34' E 013°42'0 0.0
2017-Apr-20 14:58N 45°34' E 013°42'0 0.0
2017-Apr-20 14:25N 45°34' E 013°42'0 0.0
2017-Apr-20 13:25N 45°34' E 013°42'0 0.0
2017-Apr-20 12:58N 45°34' E 013°42'0 0.0
2017-Apr-20 12:28N 45°34' E 013°42'0 0.0
2017-Apr-20 11:58N 45°34' E 013°42'0 0.0
2017-Apr-20 11:28N 45°34' E 013°42'0 0.0
2017-Apr-20 10:55N 45°34' E 013°42'0 0.0
2017-Apr-20 10:28N 45°34' E 013°42'0 0.0
2017-Apr-20 09:58N 45°34' E 013°42'0 0.1
2017-Apr-20 09:28N 45°34' E 013°42'0 0.0
2017-Apr-20 08:55N 45°34' E 013°42'0 0.0
2017-Apr-20 08:25N 45°34' E 013°42'0 0.1
2017-Apr-20 07:55N 45°34' E 013°42'0 0.0
2017-Apr-20 07:22N 45°34' E 013°42'0 0.0
2017-Apr-20 06:58N 45°34' E 013°42'0 0.0
2017-Apr-20 06:19N 45°34' E 013°42'0 0.1
2017-Apr-20 05:40N 45°34' E 013°42'0 0.0
2017-Apr-20 05:31N 45°34' E 013°42'0 0.0
2017-Apr-20 04:55N 45°34' E 013°42'0 0.0
2017-Apr-20 04:28N 45°34' E 013°42'0 0.0
2017-Apr-20 03:46N 45°34' E 013°42'0 0.0
2017-Apr-20 03:28N 45°34' E 013°42'0 0.1
2017-Apr-20 02:55N 45°34' E 013°42'0 0.0
2017-Apr-20 02:25N 45°34' E 013°42'0 0.0
2017-Apr-20 02:01N 45°34' E 013°42'0 0.1
2017-Apr-20 01:28N 45°34' E 013°42'0 0.0
2017-Apr-20 00:58N 45°34' E 013°42'0 0.1
2017-Apr-20 00:28N 45°34' E 013°42'0 0.0
2017-Apr-19 23:58N 45°34' E 013°42'0 0.1
2017-Apr-19 23:22N 45°34' E 013°42'0 0.0
2017-Apr-19 22:55N 45°34' E 013°42'0 0.1
2017-Apr-19 22:28N 45°34' E 013°42'0 0.0
2017-Apr-19 21:55N 45°34' E 013°42'0 0.0
2017-Apr-19 21:25N 45°34' E 013°42'0 0.0
2017-Apr-19 20:55N 45°34' E 013°42'0 0.1
2017-Apr-19 20:28N 45°34' E 013°42'0 0.0
2017-Apr-19 19:52N 45°34' E 013°42'0 0.0
2017-Apr-19 19:31N 45°34' E 013°42'0 0.0
2017-Apr-19 18:55N 45°34' E 013°42'0 0.1
2017-Apr-19 18:10N 45°34' E 013°42'0 0.0
2017-Apr-19 17:58N 45°34' E 013°42'0 0.0
2017-Apr-19 17:19N 45°34' E 013°42'0 0.1
2017-Apr-19 16:58N 45°34' E 013°42'0 0.0
2017-Apr-19 16:25N 45°34' E 013°42'0 0.0
2017-Apr-19 15:58N 45°34' E 013°42'0 0.0
2017-Apr-19 15:28N 45°34' E 013°42'0 0.0
2017-Apr-19 14:43N 45°34' E 013°42'0 0.0
2017-Apr-19 14:25N 45°34' E 013°42'0 0.1
2017-Apr-19 13:25N 45°34' E 013°42'0 0.1
2017-Apr-19 12:52N 45°34' E 013°42'0 0.2
2017-Apr-19 12:28N 45°34' E 013°42'0 0.0
2017-Apr-19 11:55N 45°34' E 013°42'0 0.0
2017-Apr-19 11:28N 45°34' E 013°42'0 0.0
2017-Apr-19 10:49N 45°34' E 013°42'0 0.0
2017-Apr-19 10:28N 45°34' E 013°42'0 0.0
2017-Apr-19 09:52N 45°34' E 013°42'0 0.0
2017-Apr-19 09:31N 45°34' E 013°42'0 0.0
2017-Apr-19 08:58N 45°34' E 013°42'0 0.0
2017-Apr-19 08:28N 45°34' E 013°42'0 0.0
2017-Apr-19 07:28N 45°34' E 013°42'0 0.1
2017-Apr-19 06:55N 45°34' E 013°42'0 0.1
2017-Apr-19 06:28N 45°34' E 013°42'0 0.0
2017-Apr-19 05:52N 45°34' E 013°42'0 0.1
2017-Apr-19 05:31N 45°34' E 013°42'0 0.1
2017-Apr-19 04:55N 45°34' E 013°42'0 0.1
2017-Apr-19 04:25N 45°34' E 013°42'0 0.0
2017-Apr-19 03:58N 45°34' E 013°42'0 0.1
2017-Apr-19 03:28N 45°34' E 013°42'0 0.0
2017-Apr-19 02:55N 45°34' E 013°42'0 0.0
2017-Apr-19 02:28N 45°34' E 013°42'0 0.1
2017-Apr-19 01:55N 45°34' E 013°42'0 0.0
2017-Apr-19 01:25N 45°34' E 013°42'0 0.1
2017-Apr-19 00:58N 45°34' E 013°42'0 0.1
2017-Apr-19 00:28N 45°34' E 013°42'0 0.0
2017-Apr-18 23:58N 45°34' E 013°42'0 0.0
2017-Apr-18 23:28N 45°34' E 013°42'0 0.0
2017-Apr-18 22:13N 45°34' E 013°42'0 0.1
2017-Apr-18 21:58N 45°34' E 013°42'0 0.0
2017-Apr-18 21:25N 45°34' E 013°42'0 0.0
2017-Apr-18 20:52N 45°34' E 013°42'0 0.0
2017-Apr-18 20:28N 45°34' E 013°42'0 0.0
2017-Apr-18 19:55N 45°34' E 013°42'0 0.0
2017-Apr-18 19:28N 45°34' E 013°42'0 0.0
2017-Apr-18 18:52N 45°34' E 013°42'0 0.1
2017-Apr-18 18:25N 45°34' E 013°42'0 0.1
2017-Apr-18 17:58N 45°34' E 013°42'0 0.0
2017-Apr-18 17:28N 45°34' E 013°42'0 0.0
2017-Apr-18 16:55N 45°34' E 013°42'0 0.0
2017-Apr-18 16:25N 45°34' E 013°42'0 0.2
2017-Apr-18 15:58N 45°34' E 013°42'0 0.1
2017-Apr-18 15:28N 45°34' E 013°42'0 0.0
2017-Apr-18 14:55N 45°34' E 013°42'0 0.2
2017-Apr-18 14:30N 45°34' E 013°42'8 8.2
2017-Apr-18 13:30N 45°33' E 013°30'510.6
2017-Apr-18 13:00N 45°31' E 013°24'510.2
2017-Apr-18 12:30N 45°28' E 013°18'5 9.7
2017-Apr-18 12:00N 45°25' E 013°13'510.7
2017-Apr-18 11:30N 45°19' E 013°14'5 9.9
2017-Apr-18 11:00N 45°15' E 013°15'5 9.1
2017-Apr-18 10:30N 45°10' E 013°17'4 9.0
2017-Apr-18 10:00N 45°06' E 013°18'5 9.5
2017-Apr-18 09:30N 45°01' E 013°20'511.0
2017-Apr-18 09:00N 44°56' E 013°24'611.0
2017-Apr-18 08:30N 44°52' E 013°28'611.0
2017-Apr-18 08:00N 44°47' E 013°32'510.9
2017-Apr-18 07:30N 44°42' E 013°36'611.0
2017-Apr-18 06:59N 44°37' E 013°40'510.4
2017-Apr-18 06:30N 44°34' E 013°45'510.8
2017-Apr-18 06:00N 44°32' E 013°52'510.7
2017-Apr-18 05:30N 44°31' E 013°59'510.7
2017-Apr-18 05:00N 44°27' E 014°04'510.7
2017-Apr-18 04:30N 44°22' E 014°09'1110.7
2017-Apr-18 03:30N 44°14' E 014°18'  
Track history (hours):
 
Tides and Currents Weather Stations Pressure Air Temp Water Temp Dewpoint Dewpoint Depression Visibility Wind Speed Wind Dir Waves Ship Positions

Barhom II

Last reported at 2017-Apr-28 02:21 UTC. Time now 2017-Apr-28 12:17 UTC.
Position N 31°22' E 032°19'.

Length 83 m.

Type: Cargo ship. MMSI: 677043400.

Date/timePositionNaut miles runAvg speedWind from/ knotsBaromVisibWave heightAir tempDewpointWater temp
2017-Apr-28 02:21N 31°22' E 032°19'1 2.5
2017-Apr-28 01:57N 31°21' E 032°18'0 0.0
2017-Apr-27 23:57N 31°21' E 032°18'0 0.0
2017-Apr-27 23:00N 31°21' E 032°18'  
2017-Apr-22 21:46N 43°54' E 014°15'410.6
2017-Apr-22 21:26N 43°56' E 014°12'510.7
2017-Apr-22 21:00N 44°00' E 014°08'510.7
2017-Apr-22 20:30N 44°05' E 014°04'510.7
2017-Apr-22 20:00N 44°09' E 014°00'510.6
2017-Apr-22 19:31N 44°13' E 013°56'610.4
2017-Apr-22 18:59N 44°18' E 013°51'510.4
2017-Apr-22 18:30N 44°22' E 013°48'510.4
2017-Apr-22 18:00N 44°26' E 013°43'510.4
2017-Apr-22 17:30N 44°31' E 013°39'510.2
2017-Apr-22 17:00N 44°35' E 013°35'510.4
2017-Apr-22 16:30N 44°39' E 013°31'510.3
2017-Apr-22 16:00N 44°43' E 013°27'510.3
2017-Apr-22 15:31N 44°48' E 013°23'510.5
2017-Apr-22 15:00N 44°52' E 013°19'510.6
2017-Apr-22 14:31N 44°56' E 013°15'1010.4
2017-Apr-22 13:31N 45°05' E 013°07'5 9.9
2017-Apr-22 13:01N 45°09' E 013°03'510.0
2017-Apr-22 12:31N 45°14' E 013°01'510.3
2017-Apr-22 12:00N 45°19' E 012°60'510.3
2017-Apr-22 11:31N 45°24' E 012°58'5 9.1
2017-Apr-22 11:01N 45°27' E 013°03'510.9
2017-Apr-22 10:30N 45°30' E 013°10'510.6
2017-Apr-22 10:01N 45°32' E 013°17'510.6
2017-Apr-22 09:31N 45°35' E 013°23'510.6
2017-Apr-22 09:01N 45°37' E 013°30'5 9.3
2017-Apr-22 08:31N 45°37' E 013°37'510.5
2017-Apr-22 08:00N 45°34' E 013°43'1 2.6
2017-Apr-22 07:28N 45°34' E 013°45'0 0.0
2017-Apr-22 06:55N 45°34' E 013°45'0 0.0
2017-Apr-22 06:28N 45°34' E 013°45'0 0.0
2017-Apr-22 05:55N 45°34' E 013°45'0 0.0
2017-Apr-22 05:28N 45°34' E 013°45'0 0.0
2017-Apr-22 04:55N 45°34' E 013°45'0 0.0
2017-Apr-22 04:25N 45°34' E 013°45'0 0.0
2017-Apr-22 03:58N 45°34' E 013°45'0 0.0
2017-Apr-22 03:28N 45°34' E 013°45'0 0.0
2017-Apr-22 02:55N 45°34' E 013°45'0 0.0
2017-Apr-22 02:28N 45°34' E 013°45'0 0.0
2017-Apr-22 01:55N 45°34' E 013°45'0 0.0
2017-Apr-22 01:28N 45°34' E 013°45'0 0.0
2017-Apr-22 00:55N 45°34' E 013°45'0 0.0
2017-Apr-22 00:28N 45°34' E 013°45'0 0.0
2017-Apr-21 23:55N 45°34' E 013°45'0 0.0
2017-Apr-21 23:28N 45°34' E 013°45'0 0.0
2017-Apr-21 22:58N 45°34' E 013°45'0 0.0
2017-Apr-21 22:28N 45°34' E 013°45'0 0.0
2017-Apr-21 21:55N 45°34' E 013°45'0 0.0
2017-Apr-21 21:28N 45°34' E 013°45'0 0.0
2017-Apr-21 20:58N 45°34' E 013°45'0 0.0
2017-Apr-21 20:25N 45°34' E 013°45'0 0.0
2017-Apr-21 19:58N 45°34' E 013°45'0 0.0
2017-Apr-21 19:25N 45°34' E 013°45'0 0.0
2017-Apr-21 18:58N 45°34' E 013°45'0 0.0
2017-Apr-21 18:28N 45°34' E 013°45'0 0.0
2017-Apr-21 17:58N 45°34' E 013°45'0 0.0
2017-Apr-21 17:22N 45°34' E 013°45'0 0.0
2017-Apr-21 16:52N 45°34' E 013°45'0 0.0
2017-Apr-21 16:25N 45°34' E 013°45'0 0.0
2017-Apr-21 15:55N 45°34' E 013°45'0 0.0
2017-Apr-21 15:25N 45°34' E 013°45'0 0.0
2017-Apr-21 14:58N 45°34' E 013°45'0 0.0
2017-Apr-21 14:19N 45°34' E 013°45'0 0.0
2017-Apr-21 13:28N 45°34' E 013°45'0 0.0
2017-Apr-21 12:58N 45°34' E 013°45'0 0.0
2017-Apr-21 12:25N 45°34' E 013°45'0 0.0
2017-Apr-21 11:55N 45°34' E 013°45'0 0.0
2017-Apr-21 11:25N 45°34' E 013°45'0 0.0
2017-Apr-21 10:58N 45°34' E 013°45'0 0.0
2017-Apr-21 10:28N 45°34' E 013°45'0 0.0
2017-Apr-21 09:55N 45°34' E 013°45'0 0.0
2017-Apr-21 09:28N 45°34' E 013°45'0 0.0
2017-Apr-21 08:58N 45°34' E 013°45'0 0.0
2017-Apr-21 08:25N 45°34' E 013°45'0 0.0
2017-Apr-21 07:43N 45°34' E 013°45'0 0.0
2017-Apr-21 07:28N 45°34' E 013°45'0 0.0
2017-Apr-21 06:58N 45°34' E 013°45'0 0.0
2017-Apr-21 06:25N 45°34' E 013°45'0 0.0
2017-Apr-21 05:58N 45°34' E 013°45'0 0.0
2017-Apr-21 05:28N 45°34' E 013°45'0 0.0
2017-Apr-21 04:58N 45°34' E 013°45'0 0.0
2017-Apr-21 04:28N 45°34' E 013°45'0 0.2
2017-Apr-21 03:52N 45°34' E 013°45'1 2.0
2017-Apr-21 03:28N 45°34' E 013°43'2 2.9
2017-Apr-21 02:55N 45°34' E 013°41'0 1.0
2017-Apr-21 02:28N 45°34' E 013°42'0 0.0
2017-Apr-21 01:58N 45°34' E 013°42'0 0.0
2017-Apr-21 01:28N 45°34' E 013°42'0 0.0
2017-Apr-21 00:58N 45°34' E 013°42'0 0.1
2017-Apr-21 00:28N 45°34' E 013°42'0 0.1
2017-Apr-20 23:58N 45°34' E 013°42'0 0.0
2017-Apr-20 23:28N 45°34' E 013°42'0 0.0
2017-Apr-20 22:59N 45°34' E 013°42'0 0.0
2017-Apr-20 22:28N 45°34' E 013°42'0 0.0
2017-Apr-20 21:55N 45°34' E 013°42'0 0.1
2017-Apr-20 21:25N 45°34' E 013°42'0 0.0
2017-Apr-20 20:58N 45°34' E 013°42'0 0.0
2017-Apr-20 20:28N 45°34' E 013°42'0 0.1
2017-Apr-20 19:58N 45°34' E 013°42'0 0.0
2017-Apr-20 19:07N 45°34' E 013°42'0 0.2
2017-Apr-20 18:58N 45°34' E 013°42'0 0.1
2017-Apr-20 18:28N 45°34' E 013°42'0 0.0
2017-Apr-20 17:58N 45°34' E 013°42'0 0.0
2017-Apr-20 17:25N 45°34' E 013°42'0 0.1
2017-Apr-20 16:55N 45°34' E 013°42'0 0.1
2017-Apr-20 16:13N 45°34' E 013°42'0 0.0
2017-Apr-20 15:55N 45°34' E 013°42'0 0.0
2017-Apr-20 15:25N 45°34' E 013°42'0 0.0
2017-Apr-20 14:58N 45°34' E 013°42'0 0.0
2017-Apr-20 14:25N 45°34' E 013°42'0 0.0
2017-Apr-20 13:25N 45°34' E 013°42'0 0.0
2017-Apr-20 12:58N 45°34' E 013°42'0 0.0
2017-Apr-20 12:28N 45°34' E 013°42'0 0.0
2017-Apr-20 11:58N 45°34' E 013°42'0 0.0
2017-Apr-20 11:28N 45°34' E 013°42'0 0.0
2017-Apr-20 10:55N 45°34' E 013°42'0 0.0
2017-Apr-20 10:28N 45°34' E 013°42'0 0.0
2017-Apr-20 09:58N 45°34' E 013°42'0 0.1
2017-Apr-20 09:28N 45°34' E 013°42'0 0.0
2017-Apr-20 08:55N 45°34' E 013°42'0 0.0
2017-Apr-20 08:25N 45°34' E 013°42'0 0.1
2017-Apr-20 07:55N 45°34' E 013°42'0 0.0
2017-Apr-20 07:22N 45°34' E 013°42'0 0.0
2017-Apr-20 06:58N 45°34' E 013°42'0 0.0
2017-Apr-20 06:19N 45°34' E 013°42'0 0.1
2017-Apr-20 05:40N 45°34' E 013°42'0 0.0
2017-Apr-20 05:31N 45°34' E 013°42'0 0.0
2017-Apr-20 04:55N 45°34' E 013°42'0 0.0
2017-Apr-20 04:28N 45°34' E 013°42'0 0.0
2017-Apr-20 03:46N 45°34' E 013°42'0 0.0
2017-Apr-20 03:28N 45°34' E 013°42'0 0.1
2017-Apr-20 02:55N 45°34' E 013°42'0 0.0
2017-Apr-20 02:25N 45°34' E 013°42'0 0.0
2017-Apr-20 02:01N 45°34' E 013°42'0 0.1
2017-Apr-20 01:28N 45°34' E 013°42'0 0.0
2017-Apr-20 00:58N 45°34' E 013°42'0 0.1
2017-Apr-20 00:28N 45°34' E 013°42'0 0.0
2017-Apr-19 23:58N 45°34' E 013°42'0 0.1
2017-Apr-19 23:22N 45°34' E 013°42'0 0.0
2017-Apr-19 22:55N 45°34' E 013°42'0 0.1
2017-Apr-19 22:28N 45°34' E 013°42'0 0.0
2017-Apr-19 21:55N 45°34' E 013°42'0 0.0
2017-Apr-19 21:25N 45°34' E 013°42'0 0.0
2017-Apr-19 20:55N 45°34' E 013°42'0 0.1
2017-Apr-19 20:28N 45°34' E 013°42'0 0.0
2017-Apr-19 19:52N 45°34' E 013°42'0 0.0
2017-Apr-19 19:31N 45°34' E 013°42'0 0.0
2017-Apr-19 18:55N 45°34' E 013°42'0 0.1
2017-Apr-19 18:10N 45°34' E 013°42'0 0.0
2017-Apr-19 17:58N 45°34' E 013°42'0 0.0
2017-Apr-19 17:19N 45°34' E 013°42'0 0.1
2017-Apr-19 16:58N 45°34' E 013°42'0 0.0
2017-Apr-19 16:25N 45°34' E 013°42'0 0.0
2017-Apr-19 15:58N 45°34' E 013°42'0 0.0
2017-Apr-19 15:28N 45°34' E 013°42'0 0.0
2017-Apr-19 14:43N 45°34' E 013°42'0 0.0
2017-Apr-19 14:25N 45°34' E 013°42'0 0.1
2017-Apr-19 13:25N 45°34' E 013°42'0 0.1
2017-Apr-19 12:52N 45°34' E 013°42'0 0.2
2017-Apr-19 12:28N 45°34' E 013°42'0 0.0
2017-Apr-19 11:55N 45°34' E 013°42'0 0.0
2017-Apr-19 11:28N 45°34' E 013°42'0 0.0
2017-Apr-19 10:49N 45°34' E 013°42'0 0.0
2017-Apr-19 10:28N 45°34' E 013°42'0 0.0
2017-Apr-19 09:52N 45°34' E 013°42'0 0.0
2017-Apr-19 09:31N 45°34' E 013°42'0 0.0
2017-Apr-19 08:58N 45°34' E 013°42'0 0.0
2017-Apr-19 08:28N 45°34' E 013°42'0 0.0
2017-Apr-19 07:28N 45°34' E 013°42'0 0.1
2017-Apr-19 06:55N 45°34' E 013°42'0 0.1
2017-Apr-19 06:28N 45°34' E 013°42'0 0.0
2017-Apr-19 05:52N 45°34' E 013°42'0 0.1
2017-Apr-19 05:31N 45°34' E 013°42'0 0.1
2017-Apr-19 04:55N 45°34' E 013°42'0 0.1
2017-Apr-19 04:25N 45°34' E 013°42'0 0.0
2017-Apr-19 03:58N 45°34' E 013°42'0 0.1
2017-Apr-19 03:28N 45°34' E 013°42'0 0.0
2017-Apr-19 02:55N 45°34' E 013°42'0 0.0
2017-Apr-19 02:28N 45°34' E 013°42'0 0.1
2017-Apr-19 01:55N 45°34' E 013°42'0 0.0
2017-Apr-19 01:25N 45°34' E 013°42'0 0.1
2017-Apr-19 00:58N 45°34' E 013°42'0 0.1
2017-Apr-19 00:28N 45°34' E 013°42'0 0.0
2017-Apr-18 23:58N 45°34' E 013°42'0 0.0
2017-Apr-18 23:28N 45°34' E 013°42'0 0.0
2017-Apr-18 22:13N 45°34' E 013°42'0 0.1
2017-Apr-18 21:58N 45°34' E 013°42'0 0.0
2017-Apr-18 21:25N 45°34' E 013°42'0 0.0
2017-Apr-18 20:52N 45°34' E 013°42'0 0.0
2017-Apr-18 20:28N 45°34' E 013°42'0 0.0
2017-Apr-18 19:55N 45°34' E 013°42'0 0.0
2017-Apr-18 19:28N 45°34' E 013°42'0 0.0
2017-Apr-18 18:52N 45°34' E 013°42'0 0.1
2017-Apr-18 18:25N 45°34' E 013°42'0 0.1
2017-Apr-18 17:58N 45°34' E 013°42'0 0.0
2017-Apr-18 17:28N 45°34' E 013°42'0 0.0
2017-Apr-18 16:55N 45°34' E 013°42'0 0.0
2017-Apr-18 16:25N 45°34' E 013°42'0 0.2
2017-Apr-18 15:58N 45°34' E 013°42'0 0.1
2017-Apr-18 15:28N 45°34' E 013°42'0 0.0
2017-Apr-18 14:55N 45°34' E 013°42'0 0.2
2017-Apr-18 14:30N 45°34' E 013°42'8 8.2
2017-Apr-18 13:30N 45°33' E 013°30'510.6
2017-Apr-18 13:00N 45°31' E 013°24'510.2
2017-Apr-18 12:30N 45°28' E 013°18'5 9.7
2017-Apr-18 12:00N 45°25' E 013°13'510.7
2017-Apr-18 11:30N 45°19' E 013°14'5 9.9
2017-Apr-18 11:00N 45°15' E 013°15'5 9.1
2017-Apr-18 10:30N 45°10' E 013°17'4 9.0
2017-Apr-18 10:00N 45°06' E 013°18'5 9.5
2017-Apr-18 09:30N 45°01' E 013°20'511.0
2017-Apr-18 09:00N 44°56' E 013°24'611.0
2017-Apr-18 08:30N 44°52' E 013°28'611.0
2017-Apr-18 08:00N 44°47' E 013°32'510.9
2017-Apr-18 07:30N 44°42' E 013°36'611.0
2017-Apr-18 06:59N 44°37' E 013°40'510.4
2017-Apr-18 06:30N 44°34' E 013°45'510.8
2017-Apr-18 06:00N 44°32' E 013°52'510.7
2017-Apr-18 05:30N 44°31' E 013°59'510.7
2017-Apr-18 05:00N 44°27' E 014°04'510.7
2017-Apr-18 04:30N 44°22' E 014°09'1110.7
2017-Apr-18 03:30N 44°14' E 014°18'  

Dump ship's entire track history